createdAt,value
2019-04-20T00:00:57.814Z,103103.69
2019-04-20T00:03:30.979Z,103101.09
2019-04-20T00:05:55.468Z,103095.92
2019-04-20T00:08:27.834Z,103095.16
2019-04-20T00:11:02.665Z,103098.38
2019-04-20T00:13:38.380Z,103095.07
2019-04-20T00:15:55.809Z,103092.95
2019-04-20T00:18:26.861Z,103093.48
2019-04-20T00:21:00.264Z,103093.56
2019-04-20T00:23:33.434Z,103092.88
2019-04-20T00:26:14.824Z,103093.49
2019-04-20T00:28:57.173Z,103087.59
2019-04-20T00:31:25.671Z,103092.06
2019-04-20T00:33:48.209Z,103099.61
2019-04-20T00:36:07.402Z,103089.64
2019-04-20T00:38:45.288Z,103093.86
2019-04-20T00:41:10.122Z,103090.33
2019-04-20T00:43:39.142Z,103088.75
2019-04-20T00:46:14.839Z,103078.64
2019-04-20T00:48:49.756Z,103081.95
2019-04-20T00:51:26.248Z,103076.84
2019-04-20T00:53:42.552Z,103075.11
2019-04-20T00:56:07.794Z,103073.92
2019-04-20T00:58:50.775Z,103070.47
2019-04-20T01:01:27.466Z,103072.41
2019-04-20T01:03:52.692Z,103077.51
2019-04-20T01:06:31.741Z,103074.84
2019-04-20T01:08:46.394Z,103078.31
2019-04-20T01:11:17.600Z,103080.92
2019-04-20T01:13:51.995Z,103081.63
2019-04-20T01:16:25.283Z,103086.45
2019-04-20T01:18:47.242Z,103084.03
2019-04-20T01:21:20.317Z,103078.02
2019-04-20T01:23:51.240Z,103078.02
2019-04-20T01:26:19.158Z,103080.75
2019-04-20T01:28:58.247Z,103073.84
2019-04-20T01:31:27.286Z,103076.50
2019-04-20T01:33:55.098Z,103079.40
2019-04-20T01:36:36.867Z,103072.82
2019-04-20T01:38:58.972Z,103078.27
2019-04-20T01:41:18.263Z,103078.34
2019-04-20T01:43:48.003Z,103074.09
2019-04-20T01:46:20.681Z,103071.20
2019-04-20T01:48:48.168Z,103074.39
2019-04-20T01:51:22.810Z,103076.72
2019-04-20T01:54:06.676Z,103078.13
2019-04-20T01:56:37.311Z,103075.66
2019-04-20T01:59:10.727Z,103081.68
2019-04-20T02:01:42.487Z,103080.42
2019-04-20T02:04:25.465Z,103094.30
2019-04-20T02:06:53.459Z,103090.75
2019-04-20T02:09:22.214Z,103088.62
2019-04-20T02:11:50.858Z,103081.45
2019-04-20T02:14:24.270Z,103089.22
2019-04-20T02:16:53.051Z,103088.41
2019-04-20T02:19:30.688Z,103091.36
2019-04-20T02:22:03.816Z,103093.69
2019-04-20T02:24:19.511Z,103094.15
2019-04-20T02:26:50.061Z,103095.14
2019-04-20T02:29:39.890Z,103096.66
2019-04-20T02:32:23.810Z,103099.32
2019-04-20T02:34:56.785Z,103100.38
2019-04-20T02:37:55.121Z,103106.31
2019-04-20T02:40:12.751Z,103102.52
2019-04-20T02:42:44.820Z,103096.59
2019-04-20T02:45:10.442Z,103097.86
2019-04-20T02:52:38.053Z,103098.14
2019-04-20T02:55:10.863Z,103095.27
2019-04-20T02:57:43.728Z,103098.91
2019-04-20T03:00:05.448Z,103100.77
2019-04-20T03:02:18.137Z,103098.27
2019-04-20T03:04:42.514Z,103101.84
2019-04-20T03:07:15.362Z,103102.95
2019-04-20T03:09:50.522Z,103101.22
2019-04-20T03:12:30.349Z,103108.45
2019-04-20T03:14:47.809Z,103105.48
2019-04-20T03:17:27.262Z,103107.39
2019-04-20T03:19:47.794Z,103108.31
2019-04-20T03:22:35.021Z,103103.59
2019-04-20T03:24:59.736Z,103107.23
2019-04-20T03:27:25.116Z,103106.17
2019-04-20T03:30:07.150Z,103102.25
2019-04-20T03:35:17.433Z,103106.34
2019-04-20T03:37:36.430Z,103106.81
2019-04-20T03:39:58.032Z,103103.23
2019-04-20T03:42:16.013Z,103108.02
2019-04-20T03:44:55.028Z,103109.47
2019-04-20T03:47:29.351Z,103094.98
2019-04-20T03:50:06.062Z,103102.48
2019-04-20T03:52:40.368Z,103098.91
2019-04-20T03:55:26.234Z,103100.81
2019-04-20T03:58:04.494Z,103110.63
2019-04-20T04:00:43.261Z,103105.06
2019-04-20T04:03:20.260Z,103106.05
2019-04-20T04:05:48.006Z,103101.43
2019-04-20T04:08:14.943Z,103100.51
2019-04-20T04:10:54.763Z,103100.22
2019-04-20T04:13:16.886Z,103095.00
2019-04-20T04:15:51.913Z,103104.80
2019-04-20T04:18:26.106Z,103100.08
2019-04-20T04:20:54.109Z,103096.04
2019-04-20T04:23:37.847Z,103096.56
2019-04-20T04:26:15.013Z,103106.30
2019-04-20T04:28:37.412Z,103105.44
2019-04-20T04:31:09.469Z,103104.52
2019-04-20T04:33:51.968Z,103108.95
2019-04-20T04:36:08.915Z,103110.34
2019-04-20T04:38:44.633Z,103107.63
2019-04-20T04:41:16.403Z,103108.09
2019-04-20T04:43:39.763Z,103112.13
2019-04-20T04:45:51.329Z,103114.78
2019-04-20T04:48:27.653Z,103114.31
2019-04-20T04:50:56.461Z,103112.53
2019-04-20T04:53:30.298Z,103115.02
2019-04-20T04:55:58.533Z,103114.95
2019-04-20T04:58:21.601Z,103119.86
2019-04-20T05:00:51.503Z,103121.44
2019-04-20T05:03:38.789Z,103123.98
2019-04-20T05:06:16.728Z,103123.06
2019-04-20T05:08:31.680Z,103119.83
2019-04-20T05:10:54.213Z,103120.69
2019-04-20T05:13:27.300Z,103116.59
2019-04-20T05:16:07.581Z,103125.63
2019-04-20T05:18:44.843Z,103125.97
2019-04-20T05:21:15.301Z,103117.77
2019-04-20T05:23:37.874Z,103122.87
2019-04-20T05:26:25.403Z,103117.84
2019-04-20T05:28:46.105Z,103119.86
2019-04-20T05:31:09.581Z,103120.55
2019-04-20T05:34:02.356Z,103127.72
2019-04-20T05:36:23.339Z,103123.03
2019-04-20T05:39:02.538Z,103130.66
2019-04-20T05:41:21.879Z,103132.08
2019-04-20T05:43:56.543Z,103126.77
2019-04-20T05:46:42.449Z,103126.02
2019-04-20T05:49:02.792Z,103120.78
2019-04-20T05:51:37.982Z,103123.49
2019-04-20T05:54:05.700Z,103119.98
2019-04-20T05:56:37.305Z,103129.73
2019-04-20T05:58:59.862Z,103123.62
2019-04-20T06:01:31.817Z,103124.92
2019-04-20T06:03:57.890Z,103123.38
2019-04-20T06:06:34.563Z,103118.83
2019-04-20T06:09:06.844Z,103119.69
2019-04-20T06:11:37.023Z,103123.23
2019-04-20T06:13:54.310Z,103125.02
2019-04-20T06:16:41.003Z,103125.69
2019-04-20T06:19:18.845Z,103131.81
2019-04-20T06:21:38.025Z,103127.22
2019-04-20T06:24:26.437Z,103049.28
2019-04-20T06:27:00.905Z,103129.23
2019-04-20T06:29:22.532Z,103126.48
2019-04-20T06:31:59.238Z,103131.84
2019-04-20T06:37:02.106Z,103135.91
2019-04-20T06:39:40.377Z,103131.73
2019-04-20T06:44:34.356Z,103129.75
2019-04-20T06:47:08.905Z,103136.62
2019-04-20T06:49:36.660Z,103133.61
2019-04-20T06:52:24.370Z,103135.16
2019-04-20T06:54:56.508Z,103131.06
2019-04-20T06:57:24.032Z,103127.55
2019-04-20T07:00:05.801Z,103129.35
2019-04-20T07:02:29.643Z,103131.80
2019-04-20T07:04:57.529Z,103133.12
2019-04-20T07:07:43.208Z,103130.38
2019-04-20T07:12:27.354Z,103131.73
2019-04-20T07:14:47.003Z,103132.84
2019-04-20T07:17:43.814Z,103129.42
2019-04-20T07:20:02.243Z,103134.79
2019-04-20T07:22:46.220Z,103139.03
2019-04-20T07:25:06.376Z,103064.36
2019-04-20T07:27:41.474Z,103143.64
2019-04-20T07:30:12.118Z,103142.39
2019-04-20T07:32:49.832Z,103135.52
2019-04-20T07:35:09.868Z,103139.70
2019-04-20T07:40:15.176Z,103142.70
2019-04-20T07:42:49.498Z,103144.42
2019-04-20T07:45:21.669Z,103144.78
2019-04-20T07:47:46.332Z,103141.91
2019-04-20T07:50:08.693Z,103139.02
2019-04-20T07:52:38.460Z,103137.22
2019-04-20T07:57:41.954Z,103135.09
2019-04-20T08:00:17.515Z,103135.48
2019-04-20T08:03:12.182Z,103138.32
2019-04-20T08:05:36.375Z,103137.50
2019-04-20T08:08:14.892Z,103136.02
2019-04-20T08:10:39.439Z,103139.16
2019-04-20T08:13:26.934Z,103141.94
2019-04-20T08:15:50.234Z,103131.89
2019-04-20T08:18:21.342Z,103129.69
2019-04-20T08:20:46.442Z,103127.18
2019-04-20T08:23:20.290Z,103137.50
2019-04-20T08:25:39.600Z,103132.06
2019-04-20T08:28:06.398Z,103137.72
2019-04-20T08:31:04.995Z,103130.97
2019-04-20T08:33:42.651Z,103132.84
2019-04-20T08:36:16.864Z,103134.60
2019-04-20T08:39:08.358Z,103132.58
2019-04-20T08:41:09.694Z,103129.31
2019-04-20T08:43:53.871Z,103128.76
2019-04-20T08:46:18.191Z,103126.37
2019-04-20T08:48:46.805Z,103123.30
2019-04-20T08:51:14.624Z,103127.61
2019-04-20T08:53:46.552Z,103126.98
2019-04-20T08:56:11.934Z,103120.73
2019-04-20T08:58:27.271Z,103124.52
2019-04-20T09:01:01.256Z,103122.20
2019-04-20T09:03:31.675Z,103112.90
2019-04-20T09:06:03.529Z,103124.50
2019-04-20T09:08:36.709Z,103117.79
2019-04-20T09:11:16.820Z,103116.55
2019-04-20T09:13:34.299Z,103122.34
2019-04-20T09:15:57.785Z,103107.48
2019-04-20T09:18:49.400Z,103113.59
2019-04-20T09:21:21.519Z,103122.02
2019-04-20T09:24:00.170Z,103116.16
2019-04-20T09:26:30.930Z,103114.27
2019-04-20T09:28:54.383Z,103112.88
2019-04-20T09:31:36.905Z,103101.86
2019-04-20T09:34:07.452Z,103109.45
2019-04-20T09:36:42.346Z,103111.09
2019-04-20T09:39:25.664Z,102991.66
2019-04-20T09:42:00.764Z,103106.67
2019-04-20T09:44:24.576Z,103106.77
2019-04-20T09:46:56.763Z,103104.95
2019-04-20T09:49:35.303Z,103095.88
2019-04-20T09:52:09.980Z,103098.66
2019-04-20T09:54:43.719Z,103097.20
2019-04-20T09:57:13.276Z,103105.22
2019-04-20T09:59:48.218Z,103091.89
2019-04-20T10:02:01.929Z,103089.73
2019-04-20T10:04:24.056Z,103090.39
2019-04-20T10:06:52.785Z,103088.95
2019-04-20T10:09:27.917Z,103075.02
2019-04-20T10:11:51.479Z,103082.69
2019-04-20T10:14:20.110Z,103083.84
2019-04-20T10:16:49.748Z,103087.05
2019-04-20T10:19:24.863Z,103080.01
2019-04-20T10:21:48.713Z,102811.70
2019-04-20T10:24:17.179Z,103083.27
2019-04-20T10:26:45.602Z,103078.90
2019-04-20T10:29:15.430Z,103081.03
2019-04-20T10:31:51.424Z,103073.40
2019-04-20T10:34:15.680Z,103065.17
2019-04-20T10:36:45.957Z,103075.02
2019-04-20T10:39:14.192Z,103073.76
2019-04-20T10:41:49.132Z,103074.08
2019-04-20T10:44:12.858Z,103071.20
2019-04-20T10:46:41.336Z,103067.75
2019-04-20T10:49:11.088Z,103065.66
2019-04-20T10:51:40.229Z,103063.77
2019-04-20T10:54:08.840Z,103051.20
2019-04-20T10:56:37.401Z,103063.66
2019-04-20T10:59:05.882Z,103065.36
2019-04-20T11:01:35.739Z,102807.67
2019-04-20T11:04:04.866Z,103053.87
2019-04-20T11:06:34.553Z,103055.54
2019-04-20T11:09:04.695Z,103051.05
2019-04-20T11:11:34.050Z,103048.66
2019-04-20T11:14:08.276Z,103052.41
2019-04-20T11:16:33.946Z,103038.84
2019-04-20T11:19:03.253Z,103047.45
2019-04-20T11:21:32.355Z,103046.73
2019-04-20T11:24:00.934Z,103038.50
2019-04-20T11:26:29.347Z,103027.48
2019-04-20T11:28:58.056Z,103043.20
2019-04-20T11:31:35.708Z,103040.17
2019-04-20T11:33:56.318Z,103035.83
2019-04-20T11:36:25.311Z,103028.42
2019-04-20T11:38:54.407Z,103031.22
2019-04-20T11:41:27.171Z,103025.70
2019-04-20T11:43:53.847Z,103017.22
2019-04-20T11:46:22.859Z,103019.50
2019-04-20T11:48:51.867Z,103019.53
2019-04-20T11:51:21.520Z,103017.39
2019-04-20T11:53:50.224Z,103010.48
2019-04-20T11:56:23.923Z,103006.95
2019-04-20T11:58:49.162Z,103002.64
2019-04-20T12:01:44.096Z,103003.28
2019-04-20T12:04:18.735Z,102994.92
2019-04-20T12:06:37.433Z,102995.79
2019-04-20T12:09:10.679Z,102995.55
2019-04-20T12:11:54.965Z,102990.97
2019-04-20T12:14:10.410Z,102985.11
2019-04-20T12:16:39.629Z,102982.55
2019-04-20T12:19:08.571Z,102985.19
2019-04-20T12:21:37.242Z,102982.44
2019-04-20T12:24:06.774Z,102978.99
2019-04-20T12:26:36.510Z,102978.98
2019-04-20T12:29:05.706Z,102978.52
2019-04-20T12:31:35.558Z,102974.12
2019-04-20T12:34:04.523Z,102969.82
2019-04-20T12:36:33.246Z,102962.08
2019-04-20T12:39:03.314Z,102968.05
2019-04-20T12:41:39.503Z,102949.50
2019-04-20T12:44:03.753Z,102955.89
2019-04-20T12:46:32.297Z,102959.41
2019-04-20T12:49:01.849Z,102956.05
2019-04-20T12:51:33.488Z,102954.62
2019-04-20T12:54:00.575Z,102949.53
2019-04-20T12:56:29.028Z,102957.86
2019-04-20T12:58:57.832Z,102950.38
2019-04-20T13:01:26.295Z,102950.53
2019-04-20T13:03:55.343Z,102953.20
2019-04-20T13:06:24.266Z,102951.91
2019-04-20T13:08:55.931Z,102949.45
2019-04-20T13:11:24.832Z,102941.09
2019-04-20T13:14:22.095Z,102934.95
2019-04-20T13:16:52.200Z,102942.28
2019-04-20T13:19:21.408Z,102929.91
2019-04-20T13:21:49.961Z,102931.00
2019-04-20T13:24:18.830Z,102930.44
2019-04-20T13:26:47.332Z,102919.92
2019-04-20T13:29:17.036Z,102925.57
2019-04-20T13:31:48.216Z,102917.30
2019-04-20T13:34:17.225Z,102923.38
2019-04-20T13:36:46.299Z,102921.01
2019-04-20T13:39:16.437Z,102923.14
2019-04-20T13:41:56.130Z,102915.81
2019-04-20T13:44:15.686Z,102907.98
2019-04-20T13:46:45.059Z,102916.73
2019-04-20T13:49:13.465Z,102899.91
2019-04-20T13:51:41.887Z,102911.20
2019-04-20T13:54:15.107Z,102891.80
2019-04-20T13:56:41.747Z,102899.08
2019-04-20T13:59:27.879Z,102892.44
2019-04-20T14:02:13.752Z,102893.62
2019-04-20T14:04:46.223Z,102890.09
2019-04-20T14:07:15.859Z,102894.84
2019-04-20T14:09:45.596Z,102884.63
2019-04-20T14:12:23.234Z,102881.44
2019-04-20T14:14:43.727Z,102881.89
2019-04-20T14:17:12.990Z,102888.55
2019-04-20T14:19:41.492Z,102878.73
2019-04-20T14:22:10.349Z,102873.59
2019-04-20T14:24:39.049Z,102873.89
2019-04-20T14:27:08.863Z,102864.09
2019-04-20T14:29:37.324Z,102863.73
2019-04-20T14:32:07.247Z,102864.64
2019-04-20T14:34:36.859Z,102866.34
2019-04-20T14:37:06.829Z,102853.91
2019-04-20T14:39:36.455Z,102848.69
2019-04-20T14:42:04.887Z,102852.92
2019-04-20T14:44:34.011Z,102843.28
2019-04-20T14:47:03.612Z,102851.67
2019-04-20T14:49:32.666Z,102852.91
2019-04-20T14:52:02.833Z,102855.66
2019-04-20T14:54:31.895Z,102854.17
2019-04-20T14:57:01.385Z,102846.77
2019-04-20T14:59:31.762Z,102852.94
2019-04-20T15:02:08.569Z,102844.10
2019-04-20T15:04:37.273Z,102839.17
2019-04-20T15:07:06.656Z,102835.97
2019-04-20T15:09:38.730Z,102831.89
2019-04-20T15:12:06.771Z,102831.38
2019-04-20T15:14:38.568Z,102832.02
2019-04-20T15:17:09.162Z,102828.36
2019-04-20T15:19:39.142Z,102829.38
2019-04-20T15:22:25.413Z,102824.73
2019-04-20T15:24:55.623Z,102819.34
2019-04-20T15:27:24.608Z,102821.18
2019-04-20T15:29:54.021Z,102814.70
2019-04-20T15:32:23.030Z,102814.64
2019-04-20T15:34:51.525Z,102811.18
2019-04-20T15:37:20.303Z,102809.30
2019-04-20T15:39:48.868Z,102810.22
2019-04-20T15:42:19.196Z,102812.30
2019-04-20T15:44:49.065Z,102805.45
2019-04-20T15:47:17.999Z,102802.56
2019-04-20T15:49:46.489Z,102804.87
2019-04-20T15:52:22.363Z,102806.85
2019-04-20T15:54:45.543Z,102805.16
2019-04-20T15:57:18.370Z,102804.55
2019-04-20T15:59:44.490Z,102807.95
2019-04-20T16:02:29.823Z,102803.80
2019-04-20T16:05:00.591Z,102800.02
2019-04-20T16:07:32.914Z,102803.23
2019-04-20T16:09:59.320Z,102795.70
2019-04-20T16:12:29.040Z,102790.14
2019-04-20T16:14:57.729Z,102789.43
2019-04-20T16:17:33.718Z,102785.38
2019-04-20T16:20:02.926Z,102774.50
2019-04-20T16:22:26.671Z,102773.64
2019-04-20T16:24:56.795Z,102777.62
2019-04-20T16:27:27.663Z,102776.74
2019-04-20T16:29:57.675Z,102778.80
2019-04-20T16:32:26.744Z,102789.31
2019-04-20T16:34:56.138Z,102771.16
2019-04-20T16:37:24.630Z,102767.22
2019-04-20T16:39:54.420Z,102760.08
2019-04-20T16:42:24.360Z,102762.42
2019-04-20T16:44:53.560Z,102765.66
2019-04-20T16:49:50.962Z,102758.00
2019-04-20T16:52:19.355Z,102753.53
2019-04-20T16:54:48.003Z,102754.39
2019-04-20T16:57:17.264Z,102750.98
2019-04-20T16:59:50.895Z,102749.11
2019-04-20T17:02:17.761Z,102741.63
2019-04-20T17:04:45.400Z,102744.34
2019-04-20T17:07:16.545Z,102744.84
2019-04-20T17:09:47.439Z,102749.84
2019-04-20T17:12:17.594Z,102747.50
2019-04-20T17:14:47.536Z,102748.22
2019-04-20T17:17:16.053Z,102747.88
2019-04-20T17:19:45.979Z,102742.60
2019-04-20T17:22:14.555Z,102742.08
2019-04-20T17:24:43.198Z,102736.98
2019-04-20T17:27:30.733Z,102736.30
2019-04-20T17:30:05.114Z,102733.77
2019-04-20T17:32:35.368Z,102736.43
2019-04-20T17:35:17.828Z,102738.27
2019-04-20T17:37:39.975Z,102737.04
2019-04-20T17:40:27.046Z,102740.23
2019-04-20T17:42:49.688Z,102741.03
2019-04-20T17:45:12.597Z,102742.84
2019-04-20T17:47:52.888Z,102740.38
2019-04-20T17:50:27.437Z,102734.85
2019-04-20T17:52:55.176Z,102738.08
2019-04-20T17:55:32.301Z,102737.84
2019-04-20T17:58:01.717Z,102733.62
2019-04-20T18:00:38.401Z,102737.90
2019-04-20T18:03:24.494Z,102734.71
2019-04-20T18:06:03.331Z,102730.59
2019-04-20T18:08:30.013Z,102739.80
2019-04-20T18:10:53.259Z,102741.41
2019-04-20T18:13:17.797Z,102739.97
2019-04-20T18:15:57.433Z,102746.28
2019-04-20T18:18:41.660Z,102744.36
2019-04-20T18:20:56.852Z,102738.14
2019-04-20T18:23:33.513Z,102733.94
2019-04-20T18:26:18.499Z,102740.64
2019-04-20T18:28:54.820Z,102739.95
2019-04-20T18:31:03.450Z,102741.45
2019-04-20T18:33:33.531Z,102742.71
2019-04-20T18:36:00.505Z,102746.52
2019-04-20T18:38:30.579Z,102746.41
2019-04-20T18:41:04.603Z,102740.75
2019-04-20T18:43:31.353Z,102740.84
2019-04-20T18:46:17.162Z,102742.02
2019-04-20T18:48:48.360Z,102738.41
2019-04-20T18:51:01.782Z,102741.90
2019-04-20T18:53:38.792Z,102741.90
2019-04-20T18:56:04.213Z,102742.55
2019-04-20T18:58:31.345Z,102740.26
2019-04-20T19:01:01.140Z,102746.92
2019-04-20T19:03:35.691Z,102751.39
2019-04-20T19:06:00.520Z,102754.58
2019-04-20T19:08:37.798Z,102756.28
2019-04-20T19:11:06.487Z,102758.34
2019-04-20T19:13:47.337Z,102755.25
2019-04-20T19:16:46.655Z,102754.38
2019-04-20T19:19:14.029Z,102751.64
2019-04-20T19:21:33.467Z,102754.90
2019-04-20T19:24:07.730Z,102758.41
2019-04-20T19:26:32.305Z,102757.41
2019-04-20T19:29:12.024Z,102750.41
2019-04-20T19:31:45.890Z,102755.87
2019-04-20T19:34:19.032Z,102750.80
2019-04-20T19:36:38.956Z,102748.70
2019-04-20T19:39:19.434Z,102753.92
2019-04-20T19:41:40.651Z,102752.08
2019-04-20T19:44:14.780Z,102751.79
2019-04-20T19:49:18.338Z,102752.16
2019-04-20T19:51:55.666Z,102749.22
2019-04-20T19:54:24.064Z,102745.63
2019-04-20T19:56:48.560Z,102747.54
2019-04-20T19:59:15.817Z,102742.98
2019-04-20T20:01:33.734Z,102742.45
2019-04-20T20:04:06.055Z,102749.73
2019-04-20T20:06:39.105Z,102741.89
2019-04-20T20:09:09.502Z,102744.88
2019-04-20T20:11:39.193Z,102739.72
2019-04-20T20:14:08.166Z,102734.98
2019-04-20T20:16:56.266Z,102735.55
2019-04-20T20:19:12.170Z,102734.52
2019-04-20T20:21:54.462Z,102729.34
2019-04-20T20:24:06.138Z,102727.42
2019-04-20T20:26:40.646Z,102721.34
2019-04-20T20:29:17.027Z,102535.92
2019-04-20T20:31:54.121Z,102723.56
2019-04-20T20:34:17.034Z,102732.13
2019-04-20T20:36:43.723Z,102731.42
2019-04-20T20:39:18.175Z,102725.68
2019-04-20T20:41:53.144Z,102732.61
2019-04-20T20:44:25.523Z,102730.25
2019-04-20T20:46:52.153Z,102723.62
2019-04-20T20:49:28.407Z,102723.62
2019-04-20T20:52:02.475Z,102723.66
2019-04-20T20:54:26.993Z,102727.91
2019-04-20T20:56:52.731Z,102725.42
2019-04-20T20:59:20.140Z,102730.20
2019-04-20T21:01:50.296Z,102725.05
2019-04-20T21:04:11.996Z,102727.17
2019-04-20T21:06:40.455Z,102722.59
2019-04-20T21:09:10.266Z,102719.66
2019-04-20T21:11:38.112Z,102720.33
2019-04-20T21:14:06.855Z,102719.25
2019-04-20T21:16:42.522Z,102713.20
2019-04-20T21:19:21.438Z,102713.66
2019-04-20T21:21:47.446Z,102713.20
2019-04-20T21:24:19.319Z,102703.08
2019-04-20T21:26:47.713Z,102700.59
2019-04-20T21:29:21.393Z,102706.05
2019-04-20T21:31:57.043Z,102699.66
2019-04-20T21:34:19.877Z,102702.95
2019-04-20T21:36:47.274Z,102698.06
2019-04-20T21:39:27.445Z,102694.84
2019-04-20T21:41:50.923Z,102690.91
2019-04-20T21:44:21.770Z,102689.79
2019-04-20T21:46:51.127Z,102692.20
2019-04-20T21:49:32.191Z,102697.06
2019-04-20T21:51:54.819Z,102695.88
2019-04-20T21:54:16.134Z,102688.59
2019-04-20T21:56:53.137Z,102620.52
2019-04-20T21:59:24.095Z,102696.86
2019-04-20T22:01:55.134Z,102689.71
2019-04-20T22:04:14.766Z,102680.44
2019-04-20T22:06:44.501Z,102693.73
2019-04-20T22:09:14.736Z,102681.70
2019-04-20T22:11:44.185Z,102681.59
2019-04-20T22:14:18.464Z,102688.81
2019-04-20T22:16:49.396Z,102693.14
2019-04-20T22:19:27.459Z,102683.24
2019-04-20T22:21:53.436Z,102677.47
2019-04-20T22:24:30.145Z,102674.31
2019-04-20T22:26:54.853Z,102678.86
2019-04-20T22:29:14.301Z,102678.00
2019-04-20T22:31:45.194Z,102672.53
2019-04-20T22:34:17.447Z,102677.24
2019-04-20T22:36:46.687Z,102668.76
2019-04-20T22:39:18.581Z,102668.13
2019-04-20T22:41:53.620Z,102670.02
2019-04-20T22:44:21.355Z,102669.83
2019-04-20T22:46:50.066Z,102671.48
2019-04-20T22:49:36.192Z,102669.45
2019-04-20T22:51:58.243Z,102664.88
2019-04-20T22:54:37.923Z,102665.97
2019-04-20T22:57:02.394Z,102659.99
2019-04-20T22:59:23.330Z,102662.34
2019-04-20T23:01:55.262Z,102656.91
2019-04-20T23:04:21.178Z,102656.28
2019-04-20T23:06:51.864Z,102659.88
2019-04-20T23:09:20.616Z,102653.86
2019-04-20T23:11:49.470Z,102648.62
2019-04-20T23:14:18.316Z,102646.14
2019-04-20T23:16:50.620Z,102641.14
2019-04-20T23:19:29.008Z,102642.94
2019-04-20T23:21:55.732Z,102629.87
2019-04-20T23:24:18.853Z,102632.80
2019-04-20T23:26:49.048Z,102626.86
2019-04-20T23:29:21.425Z,102622.48
2019-04-20T23:31:55.001Z,102622.33
2019-04-20T23:34:21.870Z,102622.91
2019-04-20T23:36:50.318Z,102620.40
2019-04-20T23:39:18.963Z,102614.59
2019-04-20T23:41:52.490Z,102617.35
2019-04-20T23:44:19.362Z,102611.02
2019-04-20T23:47:10.921Z,102613.93
2019-04-20T23:49:54.183Z,102614.01
2019-04-20T23:52:32.277Z,102612.27
2019-04-20T23:54:38.655Z,102612.42
2019-04-20T23:57:06.057Z,102609.30
2019-04-20T23:59:41.146Z,102609.02
